Accueil
METAR-TAF:

METAR-TAF

Aéroports :

Curaçao, Antilles néerlandaises

Aéroport international de Curaçao

latitude: 12-12N, longitude: 068-58W, altitude: 9 m

Observation

Le bulletin a été fait il y a 16 minutes, à 15:00 UTC
Vent 4 kt de nord-est, variant entre nord et est
Température 31°C
Humidité 71%
Pression 1013 hPa
Visibilité 10 km ou plus
Quelques nuages à une hauteur de 2500 ft

METAR: TNCC 191500Z 05004KT 010V080 9999 FEW025 31/25 Q1013 NOSIG

Heure: 11:16 (15:16 UTC)

Prévision

Le bulletin a été fait il y a 5 heures et 16 minutes, à 10:00 UTC
Prévision valable du 19 à 12 UTC au 20 à 12 UTC
Vent 8 kt de est/nord-est
Visibilité 10 km ou plus
Nuages épars à une hauteur de 2000 ft
Temporairement
du 19 à 15 UTC au 19 à 18 UTC
Nuages fragmentés à une hauteur de 1400 ft

TAF: TNCC 191000Z 1912/2012 07008KT 9999 SCT020 TEMPO 1915/1918 BKN014

Observations et prévisions météorologiques de plus de 4000 aéroports (messages METAR et TAF).

Les stations disponibles sont représentées par des disques jaunes et rouges sur la carte.

Passer la souris dessus pour voir le nom de la station.

Cliquer dessus pour voir les observations et prévisions météorologiques.

Pour changer de carte: cliquez sur les boutons verts avec une croix noire pour zoomer, sur le bouton vert avec un tiret pour effectuer un zoom arrière, ou sur les flèches vertes pour les cartes adjacentes.


METAR-TAF: